DW7003 Weather Reports


Display with metric or nautical units.
time (UTC)temp
F
wind
direction
speed
MPH
gust
MPH
rain 1hr
in
rain 24hr
in
rain mn
in
humidity
%
barometer
mb
20260506181604 70 141 2.0 9.0 0.00 0.00 0.00 68 1007.7
20260506180052 70 129 0.0 9.0 0.00 0.00 0.00 68 1007.9
20260506174552 70 146 3.0 8.0 0.00 0.00 0.00 68 1008.1
20260506173116 70 143 0.0 9.0 0.00 0.00 0.00 69 1008.0
20260506171548 70 140 1.0 9.0 0.00 0.00 0.00 70 1008.3
20260506170103 70 142 3.0 10.0 0.00 0.00 0.00 69 1008.5
20260506164546 70 140 1.0 11.0 0.00 0.00 0.00 69 1009.0
20260506163052 70 139 1.0 13.0 0.00 0.00 0.00 68 1009.4
20260506161544 71 146 0.0 9.0 0.00 0.00 0.00 66 1009.6
20260506160044 72 146 2.0 10.0 0.00 0.00 0.00 60 1009.5
20260506154600 73 131 2.0 9.0 0.00 0.00 0.00 55 1009.4
20260506153034 73 136 4.0 13.0 0.00 0.00 0.00 56 1009.4
20260506151531 72 149 3.0 9.0 0.00 0.00 0.00 56 1009.6
20260506150030 72 125 2.0 16.0 0.00 0.00 0.00 56 1009.7
20260506144534 73 140 5.0 17.0 0.00 0.00 0.00 55 1009.6
20260506143028 72 103 3.0 10.0 0.00 0.00 0.00 56 1009.7
20260506141524 72 140 4.0 14.0 0.00 0.00 0.00 58 1009.6
20260506140024 72 151 2.0 11.0 0.00 0.00 0.00 61 1009.7
20260506134522 72 134 4.0 18.0 0.00 0.00 0.00 60 1009.9
20260506133018 71 136 5.0 11.0 0.00 0.00 0.00 62 1010.0
20260506131616 70 111 2.0 16.0 0.00 0.00 0.00 64 1010.3
20260506130011 69 134 5.0 14.0 0.00 0.00 0.00 67 1010.2
20260506124507 66 101 3.0 14.0 0.00 0.00 0.00 71 1010.2
20260506123003 66 134 2.0 14.0 0.00 0.00 0.00 72 1010.3
20260506121503 65 133 3.0 8.0 0.00 0.00 0.00 74 1010.4
20260506120001 64 134 3.0 13.0 0.00 0.00 0.00 74 1010.3
20260506114609 64 138 2.0 9.0 0.00 0.00 0.00 76 1010.4
20260506113056 62 136 3.0 11.0 0.00 0.00 0.00 77 1010.5
20260506111554 62 136 1.0 7.0 0.00 0.00 0.00 79 1010.6
20260506110053 61 141 4.0 10.0 0.00 0.00 0.00 80 1010.6
20260506104611 61 142 1.0 9.0 0.00 0.00 0.00 82 1010.4
20260506103048 60 145 1.0 10.0 0.00 0.00 0.00 82 1010.5
20260506101549 60 141 1.0 8.0 0.00 0.00 0.00 82 1010.3
20260506100046 61 140 2.0 11.0 0.00 0.00 0.00 82 1010.3
20260506094545 61 134 1.0 5.0 0.00 0.00 0.00 82 1010.3
20260506093044 61 138 1.0 9.0 0.00 0.00 0.00 82 1010.3
20260506091542 61 136 2.0 8.0 0.00 0.00 0.00 82 1010.3
20260506090046 61 143 1.0 9.0 0.00 0.00 0.00 82 1010.4
20260506084540 61 142 1.0 10.0 0.00 0.00 0.00 81 1010.5
20260506083043 61 146 0.0 8.0 0.00 0.00 0.00 81 1010.5
20260506081537 61 140 0.0 10.0 0.00 0.00 0.00 80 1010.6
20260506073031 63 141 4.0 10.0 0.00 0.00 0.00 78 1010.7
20260506071528 63 142 2.0 11.0 0.00 0.00 0.00 77 1010.7
20260506061524 64 133 1.0 8.0 0.00 0.00 0.00 76 1010.6
20260506044513 64 99 2.0 8.0 0.00 0.00 0.00 73 1011.2
20260506043014 65 140 1.0 8.0 0.00 0.00 0.00 72 1011.3
20260506041509 65 136 0.0 7.0 0.00 0.00 0.00 71 1011.2
20260506040008 65 138 4.0 11.0 0.00 0.00 0.00 70 1011.2
20260506034507 66 132 2.0 10.0 0.00 0.00 0.00 69 1011.2
20260506033006 66 137 2.0 13.0 0.00 0.00 0.00 68 1011.2
20260506031505 66 140 3.0 10.0 0.00 0.00 0.00 68 1011.2
20260506030005 66 140 3.0 16.0 0.00 0.00 0.00 68 1011.3
20260506024509 67 150 2.0 12.0 0.00 0.00 0.00 67 1011.3
20260506023002 67 146 3.0 13.0 0.00 0.00 0.00 67 1011.4
20260506021504 67 147 2.0 13.0 0.00 0.00 0.00 67 1011.5
20260506020001 67 138 4.0 12.0 0.00 0.00 0.00 66 1011.5
20260506014600 68 136 1.0 12.0 0.00 0.00 0.00 65 1011.4
20260506013059 68 130 4.0 12.0 0.00 0.00 0.00 63 1011.3
20260506011558 68 137 3.0 12.0 0.00 0.00 0.00 61 1011.2
20260506004558 69 130 4.0 16.0 0.00 0.00 0.00 59 1010.8
20260506003107 69 139 5.0 16.0 0.00 0.00 0.00 58 1010.7
20260506001611 70 144 2.0 14.0 0.00 0.00 0.00 57 1010.7
20260506000056 71 121 1.0 9.0 0.00 0.00 0.00 55 1010.5
20260505234611 71 133 3.0 13.0 0.00 0.00 0.00 54 1010.3
20260505233055 72 135 4.0 12.0 0.00 0.00 0.00 53 1010.3
20260505231554 73 132 1.0 13.0 0.00 0.00 0.00 51 1009.9
20260505230053 74 139 4.0 14.0 0.00 0.00 0.00 50 1009.8
20260505224553 74 142 3.0 11.0 0.00 0.00 0.00 50 1009.6
20260505223105 74 130 8.0 17.0 0.00 0.00 0.00 49 1009.6
20260505221551 75 127 3.0 14.0 0.00 0.00 0.00 48 1009.4
20260505220050 76 131 4.0 13.0 0.00 0.00 0.00 46 1009.2
20260505214557 77 141 3.0 14.0 0.00 0.00 0.00 45 1009.0
20260505213053 78 140 7.0 15.0 0.00 0.00 0.00 45 1008.9
20260505211556 78 143 5.0 16.0 0.00 0.00 0.00 45 1008.8
20260505210048 79 144 3.0 14.0 0.00 0.00 0.00 44 1008.6
20260505204547 79 143 5.0 18.0 0.00 0.00 0.00 45 1008.5
20260505203105 80 141 6.0 18.0 0.00 0.00 0.00 44 1008.6
20260505201545 80 134 3.0 17.0 0.00 0.00 0.00 45 1008.5
20260505200044 81 137 8.0 17.0 0.00 0.00 0.00 44 1008.7
20260505194545 82 153 4.0 12.0 0.00 0.00 0.00 41 1008.7
20260505193042 83 145 4.0 18.0 0.00 0.00 0.00 41 1008.8
20260505191545 84 151 5.0 13.0 0.00 0.00 0.00 42 1008.8
20260505190042 83 150 5.0 15.0 0.00 0.00 0.00 45 1009.0
20260505184547 83 134 5.0 15.0 0.00 0.00 0.00 44 1009.2
20260505183043 82 144 4.0 11.0 0.00 0.00 0.00 45 1009.3